createdAt,value
2022-07-27T00:03:39.141Z,1.10
2022-07-27T00:09:03.893Z,0.97
2022-07-27T00:14:28.982Z,1.30
2022-07-27T00:19:53.179Z,1.10
2022-07-27T00:25:17.671Z,1.40
2022-07-27T00:30:43.192Z,1.30
2022-07-27T00:36:09.195Z,0.93
2022-07-27T00:41:32.986Z,1.30
2022-07-27T00:46:58.299Z,1.30
2022-07-27T00:52:23.872Z,1.00
2022-07-27T00:57:59.075Z,1.03
2022-07-27T01:03:29.803Z,1.07
2022-07-27T01:09:14.595Z,1.30
2022-07-27T01:14:40.256Z,1.30
2022-07-27T01:20:06.569Z,1.50
2022-07-27T01:25:31.241Z,1.20
2022-07-27T01:30:56.347Z,1.40
2022-07-27T01:36:19.992Z,1.20
2022-07-27T01:41:44.924Z,1.13
2022-07-27T01:47:14.282Z,1.40
2022-07-27T01:52:39.237Z,1.10
2022-07-27T01:58:07.263Z,1.20
2022-07-27T02:03:30.491Z,1.10
2022-07-27T02:08:53.877Z,1.17
2022-07-27T02:14:19.122Z,1.50
2022-07-27T02:19:45.078Z,1.40
2022-07-27T02:25:09.960Z,1.00
2022-07-27T02:30:35.251Z,1.30
2022-07-27T02:35:58.784Z,1.27
2022-07-27T02:41:22.126Z,1.20
2022-07-27T02:46:47.902Z,1.47
2022-07-27T02:52:11.672Z,1.27
2022-07-27T02:57:37.995Z,1.20
2022-07-27T03:03:03.265Z,1.20
2022-07-27T03:08:26.603Z,1.37
2022-07-27T03:13:51.004Z,1.20
2022-07-27T03:19:15.809Z,1.20
2022-07-27T03:24:39.117Z,1.47
2022-07-27T03:30:02.624Z,1.40
2022-07-27T03:35:27.243Z,1.43
2022-07-27T03:40:50.841Z,1.20
2022-07-27T03:46:14.217Z,1.20
2022-07-27T03:51:39.190Z,1.40
2022-07-27T03:57:05.022Z,1.63
2022-07-27T04:02:28.470Z,1.47
2022-07-27T04:07:54.885Z,1.77
2022-07-27T04:13:21.697Z,1.33
2022-07-27T04:18:45.642Z,1.33
2022-07-27T04:24:11.146Z,1.37
2022-07-27T04:29:35.648Z,1.63
2022-07-27T04:34:59.098Z,1.90
2022-07-27T04:40:24.011Z,1.70
2022-07-27T04:45:47.419Z,1.60
2022-07-27T04:51:14.835Z,1.90
2022-07-27T04:56:39.973Z,1.73
2022-07-27T05:02:03.729Z,1.70
2022-07-27T05:07:27.606Z,1.90
2022-07-27T05:12:54.244Z,1.93
2022-07-27T05:18:19.127Z,1.93
2022-07-27T05:23:42.427Z,1.90
2022-07-27T05:29:09.401Z,1.77
2022-07-27T05:34:33.391Z,1.80
2022-07-27T05:39:57.932Z,1.80
2022-07-27T05:45:23.287Z,1.80
2022-07-27T05:50:49.171Z,1.80
2022-07-27T05:56:12.758Z,1.40
2022-07-27T06:01:37.794Z,1.87
2022-07-27T06:07:27.159Z,1.80
2022-07-27T06:12:52.256Z,1.70
2022-07-27T06:18:18.510Z,1.60
2022-07-27T06:23:43.527Z,1.33
2022-07-27T06:29:10.564Z,1.50
2022-07-27T06:34:42.242Z,1.00
2022-07-27T06:40:07.977Z,1.20
2022-07-27T06:45:31.599Z,1.40
2022-07-27T06:50:57.150Z,1.07
2022-07-27T06:56:20.813Z,0.90
2022-07-27T07:01:48.654Z,1.13
2022-07-27T07:07:14.242Z,1.13
2022-07-27T07:12:38.068Z,1.40
2022-07-27T07:18:02.751Z,1.33
2022-07-27T07:23:27.802Z,1.07
2022-07-27T07:28:51.046Z,1.57
2022-07-27T07:34:15.028Z,1.00
2022-07-27T07:39:39.680Z,1.33
2022-07-27T07:45:03.053Z,1.10
2022-07-27T07:50:27.206Z,1.20
2022-07-27T07:55:52.970Z,0.85
2022-07-27T08:01:16.870Z,1.23
2022-07-27T08:06:40.750Z,1.03
2022-07-27T08:12:06.366Z,0.80
2022-07-27T08:17:30.037Z,0.90
2022-07-27T08:22:53.379Z,1.23
2022-07-27T08:28:19.352Z,1.10
2022-07-27T08:33:43.169Z,1.10
2022-07-27T08:39:08.698Z,1.00
2022-07-27T08:44:34.667Z,1.20
2022-07-27T08:50:00.061Z,0.97
2022-07-27T09:02:39.262Z,1.00
2022-07-27T09:09:02.173Z,1.00
2022-07-27T09:28:18.409Z,1.20
2022-07-27T09:40:49.103Z,1.00
2022-07-27T09:46:25.755Z,0.70
2022-07-27T09:52:08.031Z,0.77
2022-07-27T10:11:00.135Z,0.90
2022-07-27T10:30:54.217Z,0.90
2022-07-27T10:36:46.905Z,1.10
2022-07-27T10:42:25.321Z,1.50
2022-07-27T10:47:51.054Z,1.90
2022-07-27T10:53:16.597Z,1.30
2022-07-27T10:58:51.637Z,1.50
2022-07-27T11:04:15.256Z,1.60
2022-07-27T11:10:03.627Z,1.00
2022-07-27T11:15:28.420Z,0.97
2022-07-27T11:20:54.358Z,0.80
2022-07-27T11:33:08.068Z,0.97
2022-07-27T11:39:00.330Z,0.80
2022-07-27T11:44:54.386Z,0.90
2022-07-27T11:51:18.526Z,0.90
2022-07-27T11:56:47.338Z,0.80
2022-07-27T12:02:54.211Z,0.90
2022-07-27T12:08:18.883Z,1.43
2022-07-27T12:13:43.787Z,0.90
2022-07-27T12:19:09.246Z,0.97
2022-07-27T12:24:34.863Z,0.80
2022-07-27T12:30:09.481Z,0.97
2022-07-27T12:35:46.010Z,0.90
2022-07-27T12:41:10.497Z,0.88
2022-07-27T12:46:35.145Z,0.80
2022-07-27T12:52:08.492Z,0.77
2022-07-27T12:57:53.955Z,1.20
2022-07-27T13:03:16.279Z,1.00
2022-07-27T13:08:41.889Z,0.63
2022-07-27T13:14:07.810Z,0.90
2022-07-27T13:19:32.571Z,1.10
2022-07-27T13:24:57.608Z,0.80
2022-07-27T13:30:21.094Z,0.90
2022-07-27T13:35:45.941Z,0.90
2022-07-27T13:41:14.045Z,0.80
2022-07-27T13:46:38.988Z,0.90
2022-07-27T13:52:03.172Z,1.00
2022-07-27T13:57:27.799Z,0.80
2022-07-27T14:02:51.440Z,0.70
2022-07-27T14:08:14.876Z,0.97
2022-07-27T14:13:40.702Z,0.80
2022-07-27T14:19:09.343Z,0.87
2022-07-27T14:24:38.079Z,1.20
2022-07-27T14:30:03.257Z,1.10
2022-07-27T14:35:26.645Z,1.00
2022-07-27T14:40:51.028Z,1.00
2022-07-27T14:46:16.027Z,1.30
2022-07-27T14:51:39.559Z,1.33
2022-07-27T14:57:03.158Z,1.33
2022-07-27T15:02:28.451Z,1.10
2022-07-27T15:07:52.625Z,1.07
2022-07-27T15:13:16.315Z,1.30
2022-07-27T15:18:41.082Z,1.10
2022-07-27T15:24:05.006Z,1.20
2022-07-27T15:29:28.640Z,1.40
2022-07-27T15:34:53.643Z,0.90
2022-07-27T15:40:34.826Z,0.80
2022-07-27T15:45:58.472Z,0.80
2022-07-27T15:51:23.828Z,0.97
2022-07-27T15:56:47.384Z,1.00
2022-07-27T16:02:11.761Z,1.33
2022-07-27T16:07:41.439Z,1.07
2022-07-27T16:13:06.075Z,1.13
2022-07-27T16:18:32.956Z,1.23
2022-07-27T16:24:00.615Z,1.00
2022-07-27T16:29:24.373Z,0.90
2022-07-27T16:34:47.647Z,0.80
2022-07-27T16:40:13.991Z,1.23
2022-07-27T16:45:40.105Z,1.10
2022-07-27T16:51:03.466Z,1.23
2022-07-27T16:56:28.499Z,1.00
2022-07-27T17:01:52.474Z,1.10
2022-07-27T17:07:15.862Z,0.87
2022-07-27T17:12:40.449Z,1.03
2022-07-27T17:18:05.761Z,1.10
2022-07-27T17:23:33.467Z,1.10
2022-07-27T17:28:58.415Z,1.13
2022-07-27T17:34:22.379Z,0.87
2022-07-27T17:39:45.871Z,1.07
2022-07-27T17:45:14.192Z,1.50
2022-07-27T17:50:37.822Z,0.83
2022-07-27T17:56:02.713Z,1.20
2022-07-27T18:01:47.638Z,1.23
2022-07-27T18:07:13.478Z,0.90
2022-07-27T18:12:37.127Z,0.80
2022-07-27T18:18:01.754Z,1.27
2022-07-27T18:23:27.088Z,1.40
2022-07-27T18:28:52.657Z,1.27
2022-07-27T18:34:17.851Z,1.10
2022-07-27T18:39:41.194Z,1.20
2022-07-27T18:45:05.383Z,1.17
2022-07-27T18:50:32.514Z,1.03
2022-07-27T18:55:59.315Z,1.30
2022-07-27T19:01:22.741Z,1.30
2022-07-27T19:06:48.715Z,1.20
2022-07-27T19:12:13.059Z,1.10
2022-07-27T19:17:36.615Z,1.10
2022-07-27T19:23:02.472Z,1.40
2022-07-27T19:28:25.887Z,1.50
2022-07-27T19:33:49.125Z,1.23
2022-07-27T19:39:15.027Z,1.40
2022-07-27T19:44:39.248Z,1.60
2022-07-27T19:50:03.049Z,1.67
2022-07-27T19:55:27.851Z,1.33
2022-07-27T20:00:51.411Z,1.37
2022-07-27T20:06:16.407Z,1.20
2022-07-27T20:11:43.653Z,1.20
2022-07-27T20:17:12.543Z,1.23
2022-07-27T20:22:36.108Z,1.47
2022-07-27T20:28:00.873Z,1.40
2022-07-27T20:33:24.330Z,1.57
2022-07-27T20:38:47.932Z,1.53
2022-07-27T20:44:13.880Z,1.30
2022-07-27T20:49:37.352Z,0.90
2022-07-27T20:55:36.709Z,1.30
2022-07-27T21:01:08.579Z,1.20
2022-07-27T21:06:38.039Z,1.23
2022-07-27T21:12:02.678Z,1.40
2022-07-27T21:17:37.798Z,1.40
2022-07-27T21:23:20.226Z,1.40
2022-07-27T21:28:43.814Z,1.30
2022-07-27T21:34:11.563Z,1.13
2022-07-27T21:39:59.039Z,0.97
2022-07-27T21:46:08.891Z,1.90
2022-07-27T21:51:34.252Z,1.20
2022-07-27T21:56:59.155Z,1.50
2022-07-27T22:02:34.014Z,1.33
2022-07-27T22:08:01.706Z,1.43
2022-07-27T22:13:29.484Z,1.30
2022-07-27T22:18:55.634Z,1.67
2022-07-27T22:24:20.460Z,1.00
2022-07-27T22:29:43.802Z,1.03
2022-07-27T22:35:08.335Z,1.03
2022-07-27T22:40:32.994Z,0.87
2022-07-27T22:45:56.492Z,1.17
2022-07-27T22:51:19.750Z,1.10
2022-07-27T22:56:44.297Z,1.00
2022-07-27T23:02:08.207Z,1.20
2022-07-27T23:07:31.866Z,1.70
2022-07-27T23:12:56.548Z,1.27
2022-07-27T23:18:20.707Z,1.60
2022-07-27T23:23:51.103Z,1.23
2022-07-27T23:29:19.389Z,1.60
2022-07-27T23:34:42.693Z,1.37
2022-07-27T23:40:08.404Z,1.63
2022-07-27T23:45:34.833Z,1.20
2022-07-27T23:50:58.420Z,0.97
2022-07-27T23:56:21.654Z,1.03
